sensor_id;sensor_type;location;lat;lon;timestamp;pressure;altitude;pressure_sealevel;temperature;humidity
75551;BME280;65071;53.082;18.218;2023-09-19T00:02:03;100315.08;;;20.41;66.44
75551;BME280;65071;53.082;18.218;2023-09-19T00:04:32;100311.89;;;20.41;66.59
75551;BME280;65071;53.082;18.218;2023-09-19T00:06:59;100312.92;;;20.41;66.40
75551;BME280;65071;53.082;18.218;2023-09-19T00:09:26;100312.95;;;20.40;66.71
75551;BME280;65071;53.082;18.218;2023-09-19T00:11:53;100320.48;;;20.39;66.65
75551;BME280;65071;53.082;18.218;2023-09-19T00:14:20;100320.13;;;20.40;66.77
75551;BME280;65071;53.082;18.218;2023-09-19T00:19:17;100326.07;;;20.39;66.90
75551;BME280;65071;53.082;18.218;2023-09-19T00:21:43;100322.23;;;20.39;66.93
75551;BME280;65071;53.082;18.218;2023-09-19T00:24:09;100323.88;;;20.39;67.02
75551;BME280;65071;53.082;18.218;2023-09-19T00:26:36;100327.63;;;20.38;66.98
75551;BME280;65071;53.082;18.218;2023-09-19T00:31:30;100332.55;;;20.36;67.10
75551;BME280;65071;53.082;18.218;2023-09-19T00:33:56;100336.55;;;20.36;67.06
75551;BME280;65071;53.082;18.218;2023-09-19T00:36:28;100330.77;;;20.35;67.48
75551;BME280;65071;53.082;18.218;2023-09-19T00:38:55;100335.44;;;20.34;67.32
75551;BME280;65071;53.082;18.218;2023-09-19T00:41:21;100334.91;;;20.32;67.40
75551;BME280;65071;53.082;18.218;2023-09-19T00:43:48;100328.14;;;20.30;67.59
75551;BME280;65071;53.082;18.218;2023-09-19T00:46:17;100333.16;;;20.28;68.19
75551;BME280;65071;53.082;18.218;2023-09-19T00:48:43;100328.35;;;20.26;68.37
75551;BME280;65071;53.082;18.218;2023-09-19T00:51:10;100323.77;;;20.24;68.35
75551;BME280;65071;53.082;18.218;2023-09-19T00:53:38;100319.66;;;20.22;68.57
75551;BME280;65071;53.082;18.218;2023-09-19T00:56:06;100320.11;;;20.21;68.58
75551;BME280;65071;53.082;18.218;2023-09-19T00:58:34;100321.43;;;20.21;68.48
75551;BME280;65071;53.082;18.218;2023-09-19T01:01:01;100314.84;;;20.21;68.82
75551;BME280;65071;53.082;18.218;2023-09-19T01:03:30;100310.52;;;20.21;68.89
75551;BME280;65071;53.082;18.218;2023-09-19T01:05:56;100310.60;;;20.20;69.51
75551;BME280;65071;53.082;18.218;2023-09-19T01:08:23;100310.09;;;20.20;69.53
75551;BME280;65071;53.082;18.218;2023-09-19T01:11:02;100309.16;;;20.20;69.79
75551;BME280;65071;53.082;18.218;2023-09-19T01:25:01;100306.79;;;20.24;71.61
75551;BME280;65071;53.082;18.218;2023-09-19T01:27:53;100294.81;;;20.25;71.07
75551;BME280;65071;53.082;18.218;2023-09-19T01:30:32;100287.52;;;20.26;71.32
75551;BME280;65071;53.082;18.218;2023-09-19T01:32:59;100282.65;;;20.28;71.23
75551;BME280;65071;53.082;18.218;2023-09-19T01:35:26;100280.23;;;20.29;71.02
75551;BME280;65071;53.082;18.218;2023-09-19T01:37:52;100277.34;;;20.30;71.66
75551;BME280;65071;53.082;18.218;2023-09-19T01:40:21;100269.25;;;20.30;71.96
75551;BME280;65071;53.082;18.218;2023-09-19T01:43:12;100267.61;;;20.33;71.48
75551;BME280;65071;53.082;18.218;2023-09-19T01:48:41;100275.86;;;20.34;71.12
75551;BME280;65071;53.082;18.218;2023-09-19T01:51:09;100276.16;;;20.34;71.16
75551;BME280;65071;53.082;18.218;2023-09-19T01:53:43;100283.10;;;20.32;71.27
75551;BME280;65071;53.082;18.218;2023-09-19T01:58:46;100291.86;;;20.32;70.93
75551;BME280;65071;53.082;18.218;2023-09-19T02:01:19;100288.84;;;20.31;71.17
75551;BME280;65071;53.082;18.218;2023-09-19T02:03:47;100289.14;;;20.30;70.81
75551;BME280;65071;53.082;18.218;2023-09-19T02:06:15;100283.00;;;20.30;71.25
75551;BME280;65071;53.082;18.218;2023-09-19T02:08:41;100286.75;;;20.29;71.00
75551;BME280;65071;53.082;18.218;2023-09-19T02:11:08;100284.20;;;20.28;71.11
75551;BME280;65071;53.082;18.218;2023-09-19T02:13:34;100293.48;;;20.27;71.11
75551;BME280;65071;53.082;18.218;2023-09-19T02:16:01;100300.27;;;20.26;71.36
75551;BME280;65071;53.082;18.218;2023-09-19T02:18:30;100304.63;;;20.25;71.24
75551;BME280;65071;53.082;18.218;2023-09-19T02:20:56;100293.48;;;20.24;71.39
75551;BME280;65071;53.082;18.218;2023-09-19T02:23:24;100285.56;;;20.23;71.91
75551;BME280;65071;53.082;18.218;2023-09-19T02:25:55;100283.17;;;20.22;72.37
75551;BME280;65071;53.082;18.218;2023-09-19T02:28:24;100274.07;;;20.19;72.48
75551;BME280;65071;53.082;18.218;2023-09-19T02:30:51;100270.10;;;20.16;72.23
75551;BME280;65071;53.082;18.218;2023-09-19T02:33:17;100282.72;;;20.13;72.38
75551;BME280;65071;53.082;18.218;2023-09-19T02:35:43;100293.70;;;20.11;72.59
75551;BME280;65071;53.082;18.218;2023-09-19T02:38:10;100289.84;;;20.08;72.70
75551;BME280;65071;53.082;18.218;2023-09-19T02:40:38;100288.32;;;20.05;72.89
75551;BME280;65071;53.082;18.218;2023-09-19T02:43:04;100294.32;;;20.03;72.79
75551;BME280;65071;53.082;18.218;2023-09-19T02:45:31;100296.77;;;19.99;73.33
75551;BME280;65071;53.082;18.218;2023-09-19T02:47:58;100302.96;;;19.94;74.17
75551;BME280;65071;53.082;18.218;2023-09-19T02:50:24;100305.80;;;19.88;74.47
75551;BME280;65071;53.082;18.218;2023-09-19T02:52:51;100309.80;;;19.83;74.35
75551;BME280;65071;53.082;18.218;2023-09-19T02:55:19;100311.30;;;19.80;74.77
75551;BME280;65071;53.082;18.218;2023-09-19T02:57:46;100319.39;;;19.75;74.07
75551;BME280;65071;53.082;18.218;2023-09-19T03:00:13;100322.22;;;19.74;74.73
75551;BME280;65071;53.082;18.218;2023-09-19T03:02:40;100325.48;;;19.71;75.82
75551;BME280;65071;53.082;18.218;2023-09-19T03:05:07;100320.80;;;19.68;75.89
75551;BME280;65071;53.082;18.218;2023-09-19T03:07:34;100323.38;;;19.66;76.58
75551;BME280;65071;53.082;18.218;2023-09-19T03:10:00;100323.68;;;19.64;76.59
75551;BME280;65071;53.082;18.218;2023-09-19T03:12:26;100311.13;;;19.60;76.62
75551;BME280;65071;53.082;18.218;2023-09-19T03:14:53;100325.04;;;19.58;76.45
75551;BME280;65071;53.082;18.218;2023-09-19T03:17:20;100333.59;;;19.57;76.72
75551;BME280;65071;53.082;18.218;2023-09-19T03:19:47;100338.73;;;19.52;77.15
75551;BME280;65071;53.082;18.218;2023-09-19T03:22:14;100344.83;;;19.46;78.20
75551;BME280;65071;53.082;18.218;2023-09-19T03:24:41;100334.73;;;19.38;78.73
75551;BME280;65071;53.082;18.218;2023-09-19T03:27:10;100332.02;;;19.29;80.07
75551;BME280;65071;53.082;18.218;2023-09-19T03:29:37;100326.38;;;19.21;79.82
75551;BME280;65071;53.082;18.218;2023-09-19T03:32:04;100328.09;;;19.17;79.69
75551;BME280;65071;53.082;18.218;2023-09-19T03:34:31;100330.96;;;19.13;79.38
75551;BME280;65071;53.082;18.218;2023-09-19T03:36:57;100332.63;;;19.11;80.96
75551;BME280;65071;53.082;18.218;2023-09-19T03:39:24;100332.48;;;19.07;80.81
75551;BME280;65071;53.082;18.218;2023-09-19T03:41:51;100333.07;;;19.05;80.60
75551;BME280;65071;53.082;18.218;2023-09-19T03:44:17;100335.80;;;19.04;81.02
75551;BME280;65071;53.082;18.218;2023-09-19T03:46:44;100332.41;;;19.02;81.66
75551;BME280;65071;53.082;18.218;2023-09-19T03:49:10;100331.42;;;19.00;81.67
75551;BME280;65071;53.082;18.218;2023-09-19T03:51:37;100327.72;;;18.98;81.13
75551;BME280;65071;53.082;18.218;2023-09-19T03:54:04;100328.48;;;18.98;81.33
75551;BME280;65071;53.082;18.218;2023-09-19T03:56:30;100325.50;;;18.97;81.19
75551;BME280;65071;53.082;18.218;2023-09-19T03:58:57;100330.55;;;18.97;81.21
75551;BME280;65071;53.082;18.218;2023-09-19T04:01:23;100331.42;;;18.98;81.55
75551;BME280;65071;53.082;18.218;2023-09-19T04:03:50;100332.65;;;18.97;81.49
75551;BME280;65071;53.082;18.218;2023-09-19T04:06:18;100336.64;;;18.97;81.71
75551;BME280;65071;53.082;18.218;2023-09-19T04:08:44;100338.70;;;18.96;81.61
75551;BME280;65071;53.082;18.218;2023-09-19T04:11:12;100337.98;;;18.96;81.34
75551;BME280;65071;53.082;18.218;2023-09-19T04:13:39;100336.99;;;18.96;82.16
75551;BME280;65071;53.082;18.218;2023-09-19T04:16:05;100332.74;;;18.95;82.13
75551;BME280;65071;53.082;18.218;2023-09-19T04:18:33;100326.27;;;18.94;81.98
75551;BME280;65071;53.082;18.218;2023-09-19T04:21:04;100322.70;;;18.94;82.52
75551;BME280;65071;53.082;18.218;2023-09-19T04:23:32;100325.48;;;18.93;82.56
75551;BME280;65071;53.082;18.218;2023-09-19T04:25:58;100321.80;;;18.94;82.29
75551;BME280;65071;53.082;18.218;2023-09-19T04:28:25;100316.69;;;18.94;82.87
75551;BME280;65071;53.082;18.218;2023-09-19T04:30:53;100315.55;;;18.93;82.91
75551;BME280;65071;53.082;18.218;2023-09-19T04:33:21;100313.79;;;18.92;83.40
75551;BME280;65071;53.082;18.218;2023-09-19T04:35:51;100312.36;;;18.92;83.95
75551;BME280;65071;53.082;18.218;2023-09-19T04:38:18;100313.54;;;18.92;83.50
75551;BME280;65071;53.082;18.218;2023-09-19T04:40:46;100316.58;;;18.92;83.85
75551;BME280;65071;53.082;18.218;2023-09-19T04:43:13;100320.73;;;18.92;83.38
75551;BME280;65071;53.082;18.218;2023-09-19T04:45:39;100315.39;;;18.93;83.19
75551;BME280;65071;53.082;18.218;2023-09-19T04:48:08;100319.46;;;18.93;83.61
75551;BME280;65071;53.082;18.218;2023-09-19T04:50:35;100321.14;;;18.93;83.60
75551;BME280;65071;53.082;18.218;2023-09-19T04:53:03;100325.85;;;18.93;83.49
75551;BME280;65071;53.082;18.218;2023-09-19T04:55:30;100326.61;;;18.93;83.83
75551;BME280;65071;53.082;18.218;2023-09-19T04:57:58;100324.73;;;18.92;83.33
75551;BME280;65071;53.082;18.218;2023-09-19T05:00:25;100325.44;;;18.92;83.33
75551;BME280;65071;53.082;18.218;2023-09-19T05:02:57;100320.44;;;18.93;84.24
75551;BME280;65071;53.082;18.218;2023-09-19T05:05:23;100320.30;;;18.94;84.37
75551;BME280;65071;53.082;18.218;2023-09-19T05:07:51;100314.06;;;18.94;84.17
75551;BME280;65071;53.082;18.218;2023-09-19T05:10:20;100313.33;;;18.96;83.91
75551;BME280;65071;53.082;18.218;2023-09-19T05:12:46;100314.48;;;18.96;83.95
75551;BME280;65071;53.082;18.218;2023-09-19T05:15:13;100309.64;;;18.97;83.74
75551;BME280;65071;53.082;18.218;2023-09-19T05:17:50;100306.36;;;18.99;83.62
75551;BME280;65071;53.082;18.218;2023-09-19T05:20:17;100311.70;;;18.99;83.57
75551;BME280;65071;53.082;18.218;2023-09-19T05:23:00;100314.60;;;19.01;83.69
75551;BME280;65071;53.082;18.218;2023-09-19T05:25:29;100314.28;;;19.03;83.46
75551;BME280;65071;53.082;18.218;2023-09-19T05:27:57;100313.23;;;19.04;83.36
75551;BME280;65071;53.082;18.218;2023-09-19T05:30:24;100308.84;;;19.05;84.08
75551;BME280;65071;53.082;18.218;2023-09-19T05:32:51;100313.04;;;19.05;84.95
75551;BME280;65071;53.082;18.218;2023-09-19T05:35:18;100320.06;;;19.06;84.60
75551;BME280;65071;53.082;18.218;2023-09-19T05:37:44;100323.60;;;19.06;84.53
75551;BME280;65071;53.082;18.218;2023-09-19T05:40:10;100319.94;;;19.08;84.51
75551;BME280;65071;53.082;18.218;2023-09-19T05:42:38;100313.86;;;19.09;84.69
75551;BME280;65071;53.082;18.218;2023-09-19T05:45:05;100315.45;;;19.12;84.45
75551;BME280;65071;53.082;18.218;2023-09-19T05:47:32;100316.70;;;19.15;83.87
75551;BME280;65071;53.082;18.218;2023-09-19T05:49:59;100324.47;;;19.18;84.34
75551;BME280;65071;53.082;18.218;2023-09-19T05:52:25;100327.83;;;19.20;84.72
75551;BME280;65071;53.082;18.218;2023-09-19T05:54:52;100333.39;;;19.22;84.59
75551;BME280;65071;53.082;18.218;2023-09-19T05:57:18;100336.59;;;19.24;84.77
75551;BME280;65071;53.082;18.218;2023-09-19T05:59:46;100335.70;;;19.25;84.45
75551;BME280;65071;53.082;18.218;2023-09-19T06:02:12;100341.84;;;19.26;84.78
75551;BME280;65071;53.082;18.218;2023-09-19T06:04:38;100339.26;;;19.26;84.89
75551;BME280;65071;53.082;18.218;2023-09-19T06:07:07;100335.56;;;19.27;84.76
75551;BME280;65071;53.082;18.218;2023-09-19T06:09:33;100334.48;;;19.27;84.88
75551;BME280;65071;53.082;18.218;2023-09-19T06:12:00;100331.98;;;19.26;85.37
75551;BME280;65071;53.082;18.218;2023-09-19T06:14:30;100325.14;;;19.26;84.93
75551;BME280;65071;53.082;18.218;2023-09-19T06:16:57;100329.02;;;19.26;84.43
75551;BME280;65071;53.082;18.218;2023-09-19T06:19:23;100335.73;;;19.26;84.23
75551;BME280;65071;53.082;18.218;2023-09-19T06:21:52;100336.92;;;19.25;84.38
75551;BME280;65071;53.082;18.218;2023-09-19T06:24:20;100340.27;;;19.21;84.71
75551;BME280;65071;53.082;18.218;2023-09-19T06:26:47;100349.82;;;19.21;83.99
75551;BME280;65071;53.082;18.218;2023-09-19T06:29:13;100358.42;;;19.18;84.38
75551;BME280;65071;53.082;18.218;2023-09-19T06:31:40;100364.06;;;19.17;84.06
75551;BME280;65071;53.082;18.218;2023-09-19T06:34:08;100371.77;;;19.16;83.83
75551;BME280;65071;53.082;18.218;2023-09-19T06:36:34;100371.39;;;19.14;83.67
75551;BME280;65071;53.082;18.218;2023-09-19T06:39:01;100372.48;;;19.09;84.25
75551;BME280;65071;53.082;18.218;2023-09-19T06:41:30;100377.61;;;19.05;83.90
75551;BME280;65071;53.082;18.218;2023-09-19T06:43:56;100377.81;;;19.02;83.72
75551;BME280;65071;53.082;18.218;2023-09-19T06:46:24;100382.71;;;18.99;83.79
75551;BME280;65071;53.082;18.218;2023-09-19T06:48:51;100383.47;;;18.97;83.68
75551;BME280;65071;53.082;18.218;2023-09-19T06:51:18;100391.30;;;18.97;83.51
75551;BME280;65071;53.082;18.218;2023-09-19T06:53:44;100389.19;;;18.96;84.05
75551;BME280;65071;53.082;18.218;2023-09-19T06:56:11;100390.89;;;18.94;84.23
75551;BME280;65071;53.082;18.218;2023-09-19T06:58:37;100388.27;;;18.93;84.36
75551;BME280;65071;53.082;18.218;2023-09-19T07:01:04;100393.77;;;18.96;84.14
75551;BME280;65071;53.082;18.218;2023-09-19T07:03:31;100396.52;;;18.98;84.78
75551;BME280;65071;53.082;18.218;2023-09-19T07:05:59;100394.94;;;19.00;84.31
75551;BME280;65071;53.082;18.218;2023-09-19T07:08:26;100405.23;;;19.03;83.95
75551;BME280;65071;53.082;18.218;2023-09-19T07:10:52;100409.61;;;19.02;84.31
75551;BME280;65071;53.082;18.218;2023-09-19T07:13:20;100408.57;;;19.01;83.93
75551;BME280;65071;53.082;18.218;2023-09-19T07:15:46;100414.15;;;19.03;83.94
75551;BME280;65071;53.082;18.218;2023-09-19T07:18:14;100412.42;;;19.06;83.81
75551;BME280;65071;53.082;18.218;2023-09-19T07:20:40;100408.44;;;19.12;83.44
75551;BME280;65071;53.082;18.218;2023-09-19T07:23:11;100410.16;;;19.21;83.93
75551;BME280;65071;53.082;18.218;2023-09-19T07:25:41;100411.46;;;19.30;83.61
75551;BME280;65071;53.082;18.218;2023-09-19T07:28:07;100416.75;;;19.41;83.49
75551;BME280;65071;53.082;18.218;2023-09-19T07:30:36;100412.02;;;19.53;83.48
75551;BME280;65071;53.082;18.218;2023-09-19T07:33:03;100409.42;;;19.69;82.75
75551;BME280;65071;53.082;18.218;2023-09-19T07:35:32;100407.42;;;19.80;82.02
75551;BME280;65071;53.082;18.218;2023-09-19T07:37:58;100407.47;;;19.89;81.57
75551;BME280;65071;53.082;18.218;2023-09-19T07:40:28;100411.80;;;20.02;81.25
75551;BME280;65071;53.082;18.218;2023-09-19T07:42:55;100418.64;;;20.11;80.60
75551;BME280;65071;53.082;18.218;2023-09-19T07:45:21;100419.23;;;20.16;80.28
75551;BME280;65071;53.082;18.218;2023-09-19T07:47:50;100421.40;;;20.20;79.79
75551;BME280;65071;53.082;18.218;2023-09-19T07:50:17;100419.09;;;20.21;79.63
75551;BME280;65071;53.082;18.218;2023-09-19T07:52:48;100418.82;;;20.25;79.33
75551;BME280;65071;53.082;18.218;2023-09-19T07:55:17;100420.48;;;20.33;79.25
75551;BME280;65071;53.082;18.218;2023-09-19T07:57:43;100418.94;;;20.46;79.43
75551;BME280;65071;53.082;18.218;2023-09-19T08:00:10;100420.39;;;20.52;78.81
75551;BME280;65071;53.082;18.218;2023-09-19T08:02:39;100422.66;;;20.55;78.93
75551;BME280;65071;53.082;18.218;2023-09-19T08:05:06;100428.23;;;20.56;78.72
75551;BME280;65071;53.082;18.218;2023-09-19T08:07:37;100436.38;;;20.51;78.71
75551;BME280;65071;53.082;18.218;2023-09-19T08:10:05;100444.88;;;20.48;78.36
75551;BME280;65071;53.082;18.218;2023-09-19T08:12:34;100447.19;;;20.44;79.12
75551;BME280;65071;53.082;18.218;2023-09-19T08:15:04;100446.84;;;20.41;78.76
75551;BME280;65071;53.082;18.218;2023-09-19T08:17:35;100449.40;;;20.36;78.72
75551;BME280;65071;53.082;18.218;2023-09-19T08:20:01;100449.26;;;20.29;78.40
75551;BME280;65071;53.082;18.218;2023-09-19T08:22:31;100449.81;;;20.20;78.35
75551;BME280;65071;53.082;18.218;2023-09-19T08:25:01;100456.43;;;20.20;78.60
75551;BME280;65071;53.082;18.218;2023-09-19T08:27:27;100465.40;;;20.15;78.95
75551;BME280;65071;53.082;18.218;2023-09-19T08:29:54;100460.86;;;20.14;78.67
75551;BME280;65071;53.082;18.218;2023-09-19T08:32:20;100464.21;;;20.14;78.42
75551;BME280;65071;53.082;18.218;2023-09-19T08:34:50;100462.92;;;20.17;78.47
75551;BME280;65071;53.082;18.218;2023-09-19T08:37:16;100465.85;;;20.16;78.31
75551;BME280;65071;53.082;18.218;2023-09-19T08:39:43;100467.48;;;20.22;78.70
75551;BME280;65071;53.082;18.218;2023-09-19T08:42:10;100473.70;;;20.26;78.25
75551;BME280;65071;53.082;18.218;2023-09-19T08:44:39;100477.07;;;20.26;78.20
75551;BME280;65071;53.082;18.218;2023-09-19T08:47:11;100480.79;;;20.29;78.48
75551;BME280;65071;53.082;18.218;2023-09-19T08:50:01;100485.30;;;20.33;78.07
75551;BME280;65071;53.082;18.218;2023-09-19T08:52:43;100482.90;;;20.43;78.19
75551;BME280;65071;53.082;18.218;2023-09-19T08:55:12;100490.58;;;20.54;78.06
75551;BME280;65071;53.082;18.218;2023-09-19T08:57:40;100491.59;;;20.68;77.81
75551;BME280;65071;53.082;18.218;2023-09-19T09:00:10;100489.42;;;20.83;77.19
75551;BME280;65071;53.082;18.218;2023-09-19T09:02:38;100491.52;;;20.89;76.83
75551;BME280;65071;53.082;18.218;2023-09-19T09:05:09;100493.27;;;20.94;76.66
75551;BME280;65071;53.082;18.218;2023-09-19T09:07:37;100494.93;;;21.07;76.31
75551;BME280;65071;53.082;18.218;2023-09-19T09:10:05;100494.57;;;21.25;76.06
75551;BME280;65071;53.082;18.218;2023-09-19T09:12:35;100493.72;;;21.39;75.79
75551;BME280;65071;53.082;18.218;2023-09-19T09:15:07;100488.02;;;21.52;73.92
75551;BME280;65071;53.082;18.218;2023-09-19T09:17:47;100481.44;;;21.59;73.43
75551;BME280;65071;53.082;18.218;2023-09-19T09:22:55;100491.18;;;21.93;71.39
75551;BME280;65071;53.082;18.218;2023-09-19T09:25:49;100499.48;;;22.07;71.39
75551;BME280;65071;53.082;18.218;2023-09-19T09:28:48;100498.10;;;22.21;69.69
75551;BME280;65071;53.082;18.218;2023-09-19T09:31:23;100496.20;;;22.20;69.61
75551;BME280;65071;53.082;18.218;2023-09-19T09:33:54;100500.42;;;22.20;69.73
75551;BME280;65071;53.082;18.218;2023-09-19T09:36:33;100499.15;;;22.14;69.63
75551;BME280;65071;53.082;18.218;2023-09-19T09:39:00;100504.82;;;22.00;68.17
75551;BME280;65071;53.082;18.218;2023-09-19T09:41:42;100506.86;;;21.90;69.20
75551;BME280;65071;53.082;18.218;2023-09-19T09:44:16;100508.06;;;21.86;68.84
75551;BME280;65071;53.082;18.218;2023-09-19T09:46:47;100510.39;;;21.95;68.65
75551;BME280;65071;53.082;18.218;2023-09-19T09:49:34;100505.50;;;22.14;68.71
75551;BME280;65071;53.082;18.218;2023-09-19T09:52:03;100504.73;;;22.36;68.48
75551;BME280;65071;53.082;18.218;2023-09-19T09:54:58;100501.86;;;22.54;67.32
75551;BME280;65071;53.082;18.218;2023-09-19T09:57:26;100502.67;;;22.68;67.34
75551;BME280;65071;53.082;18.218;2023-09-19T09:59:57;100501.27;;;22.75;67.13
75551;BME280;65071;53.082;18.218;2023-09-19T10:02:42;100505.40;;;22.82;66.74
75551;BME280;65071;53.082;18.218;2023-09-19T10:05:19;100505.82;;;22.79;65.96
75551;BME280;65071;53.082;18.218;2023-09-19T10:08:10;100506.63;;;22.74;66.57
75551;BME280;65071;53.082;18.218;2023-09-19T10:10:39;100505.27;;;22.66;66.16
75551;BME280;65071;53.082;18.218;2023-09-19T10:13:13;100507.27;;;22.62;66.57
75551;BME280;65071;53.082;18.218;2023-09-19T10:15:42;100508.35;;;22.62;65.95
75551;BME280;65071;53.082;18.218;2023-09-19T10:18:21;100512.55;;;22.67;66.28
75551;BME280;65071;53.082;18.218;2023-09-19T10:20:49;100513.06;;;22.81;66.05
75551;BME280;65071;53.082;18.218;2023-09-19T10:23:18;100516.66;;;23.05;65.19
75551;BME280;65071;53.082;18.218;2023-09-19T10:25:53;100520.99;;;23.18;63.32
75551;BME280;65071;53.082;18.218;2023-09-19T10:28:21;100521.36;;;23.23;63.19
75551;BME280;65071;53.082;18.218;2023-09-19T10:30:51;100531.55;;;23.23;62.45
75551;BME280;65071;53.082;18.218;2023-09-19T10:33:20;100536.42;;;23.26;61.63
75551;BME280;65071;53.082;18.218;2023-09-19T10:38:18;100545.60;;;23.26;59.06
75551;BME280;65071;53.082;18.218;2023-09-19T10:40:53;100547.30;;;23.30;59.17
75551;BME280;65071;53.082;18.218;2023-09-19T10:43:26;100549.13;;;23.36;58.82
75551;BME280;65071;53.082;18.218;2023-09-19T10:46:01;100548.59;;;23.39;57.92
75551;BME280;65071;53.082;18.218;2023-09-19T10:48:30;100554.41;;;23.36;57.96
75551;BME280;65071;53.082;18.218;2023-09-19T10:51:08;100550.41;;;23.35;57.62
75551;BME280;65071;53.082;18.218;2023-09-19T10:56:23;100541.54;;;23.31;57.88
75551;BME280;65071;53.082;18.218;2023-09-19T10:59:06;100540.93;;;23.33;57.56
75551;BME280;65071;53.082;18.218;2023-09-19T11:01:46;100540.41;;;23.38;57.68
75551;BME280;65071;53.082;18.218;2023-09-19T11:04:36;100537.42;;;23.50;56.94
75551;BME280;65071;53.082;18.218;2023-09-19T11:07:09;100541.39;;;23.60;57.03
75551;BME280;65071;53.082;18.218;2023-09-19T11:09:49;100535.70;;;23.67;57.40
75551;BME280;65071;53.082;18.218;2023-09-19T11:12:48;100535.16;;;23.78;56.57
75551;BME280;65071;53.082;18.218;2023-09-19T11:27:11;100522.48;;;24.02;52.33
75551;BME280;65071;53.082;18.218;2023-09-19T11:29:40;100531.65;;;24.01;53.36
75551;BME280;65071;53.082;18.218;2023-09-19T11:32:08;100537.73;;;23.91;51.55
75551;BME280;65071;53.082;18.218;2023-09-19T11:34:38;100536.95;;;23.82;50.77
75551;BME280;65071;53.082;18.218;2023-09-19T11:38:00;100542.80;;;23.80;51.98
75551;BME280;65071;53.082;18.218;2023-09-19T11:40:11;100544.69;;;23.81;50.94
75551;BME280;65071;53.082;18.218;2023-09-19T11:42:45;100545.59;;;23.77;50.43
75551;BME280;65071;53.082;18.218;2023-09-19T11:48:15;100547.55;;;23.86;49.47
75551;BME280;65071;53.082;18.218;2023-09-19T11:50:45;100543.31;;;23.92;49.81
75551;BME280;65071;53.082;18.218;2023-09-19T11:53:13;100544.53;;;24.02;50.15
75551;BME280;65071;53.082;18.218;2023-09-19T11:55:43;100550.82;;;24.18;50.00
75551;BME280;65071;53.082;18.218;2023-09-19T11:58:12;100559.21;;;24.30;49.29
75551;BME280;65071;53.082;18.218;2023-09-19T12:00:42;100560.36;;;24.39;48.78
75551;BME280;65071;53.082;18.218;2023-09-19T12:03:11;100566.55;;;24.46;49.72
75551;BME280;65071;53.082;18.218;2023-09-19T12:05:40;100572.80;;;24.44;48.88
75551;BME280;65071;53.082;18.218;2023-09-19T12:08:07;100572.24;;;24.44;49.59
75551;BME280;65071;53.082;18.218;2023-09-19T12:10:47;100573.48;;;24.45;49.33
75551;BME280;65071;53.082;18.218;2023-09-19T12:13:18;100578.87;;;24.45;49.18
75551;BME280;65071;53.082;18.218;2023-09-19T12:15:45;100574.40;;;24.44;48.89
75551;BME280;65071;53.082;18.218;2023-09-19T12:18:27;100573.05;;;24.45;49.42
75551;BME280;65071;53.082;18.218;2023-09-19T12:20:54;100577.53;;;24.43;48.99
75551;BME280;65071;53.082;18.218;2023-09-19T12:23:21;100574.88;;;24.36;48.01
75551;BME280;65071;53.082;18.218;2023-09-19T12:25:48;100578.00;;;24.27;48.03
75551;BME280;65071;53.082;18.218;2023-09-19T12:28:14;100579.34;;;24.24;48.62
75551;BME280;65071;53.082;18.218;2023-09-19T12:30:43;100581.17;;;24.22;48.74
75551;BME280;65071;53.082;18.218;2023-09-19T12:33:20;100581.38;;;24.19;48.72
75551;BME280;65071;53.082;18.218;2023-09-19T12:35:51;100586.53;;;24.12;47.55
75551;BME280;65071;53.082;18.218;2023-09-19T12:38:23;100593.14;;;24.06;47.31
75551;BME280;65071;53.082;18.218;2023-09-19T12:40:51;100593.96;;;24.03;46.67
75551;BME280;65071;53.082;18.218;2023-09-19T12:43:18;100592.64;;;23.97;46.08
75551;BME280;65071;53.082;18.218;2023-09-19T12:45:45;100596.69;;;23.92;45.82
75551;BME280;65071;53.082;18.218;2023-09-19T12:48:19;100592.24;;;23.83;45.04
75551;BME280;65071;53.082;18.218;2023-09-19T12:51:00;100594.63;;;23.73;45.59
75551;BME280;65071;53.082;18.218;2023-09-19T12:53:39;100598.32;;;23.64;45.65
75551;BME280;65071;53.082;18.218;2023-09-19T12:56:11;100599.27;;;23.54;46.18
75551;BME280;65071;53.082;18.218;2023-09-19T12:58:52;100603.20;;;23.43;46.50
75551;BME280;65071;53.082;18.218;2023-09-19T13:01:23;100607.75;;;23.33;46.92
75551;BME280;65071;53.082;18.218;2023-09-19T13:04:12;100608.06;;;23.20;47.48
75551;BME280;65071;53.082;18.218;2023-09-19T13:07:39;100607.15;;;23.12;48.52
75551;BME280;65071;53.082;18.218;2023-09-19T13:10:04;100607.45;;;22.99;47.75
75551;BME280;65071;53.082;18.218;2023-09-19T13:12:38;100612.29;;;22.90;47.44
75551;BME280;65071;53.082;18.218;2023-09-19T13:15:10;100613.15;;;22.85;46.38
75551;BME280;65071;53.082;18.218;2023-09-19T13:17:47;100609.63;;;22.77;43.98
75551;BME280;65071;53.082;18.218;2023-09-19T13:20:26;100612.23;;;22.67;43.29
75551;BME280;65071;53.082;18.218;2023-09-19T13:22:58;100609.63;;;22.61;42.80
75551;BME280;65071;53.082;18.218;2023-09-19T13:25:26;100609.60;;;22.50;43.32
75551;BME280;65071;53.082;18.218;2023-09-19T13:27:56;100616.78;;;22.45;43.90
75551;BME280;65071;53.082;18.218;2023-09-19T13:30:25;100624.45;;;22.44;44.36
75551;BME280;65071;53.082;18.218;2023-09-19T13:33:03;100623.00;;;22.43;44.20
75551;BME280;65071;53.082;18.218;2023-09-19T13:35:30;100626.34;;;22.39;44.38
75551;BME280;65071;53.082;18.218;2023-09-19T13:37:56;100625.70;;;22.39;44.90
75551;BME280;65071;53.082;18.218;2023-09-19T13:40:22;100629.02;;;22.44;45.03